Atlas, Illinois
Current Conditions -  °F | °C
As of 4:35 AM on Saturday 01 Nov 2014 (Local Time) from KPPQ Reporting Station
Clear Clear  
Wind Chill: 23°   Ceiling: Unl
Heat Index: 30°   Visibility: 10mi
Dew Point: 21°   Wind: 7mph
Humidity: 70%   Direction: 360°N
Pressure: 30.45"   Gusts: NA
Location:  39.5365°N, 91.0118°W
Report Text: KPPQ 010935Z AUTO 36006KT 10SM CLR M01/M06 A3045 RMK AO2 T10111060
Loading
Personal Weather Stations






























Interactive Weather Map
Tropical Storm Tracking
New forecast layout! Learn more

10-Day Weather Forecast

Advertisements
Track Severe Weather on mobile